sensor_id;sensor_type;location;lat;lon;timestamp;pressure;altitude;pressure_sealevel;temperature;humidity
75867;BME280;64513;56.258;43.980;2023-02-01T00:02:31;98896.52;;;5.83;66.50
75867;BME280;64513;56.258;43.980;2023-02-01T00:04:57;98893.89;;;5.83;66.44
75867;BME280;64513;56.258;43.980;2023-02-01T00:07:21;98884.48;;;5.82;66.56
75867;BME280;64513;56.258;43.980;2023-02-01T00:09:45;98884.48;;;5.82;66.72
75867;BME280;64513;56.258;43.980;2023-02-01T00:12:09;98906.22;;;5.83;66.64
75867;BME280;64513;56.258;43.980;2023-02-01T00:14:33;98897.59;;;5.82;66.52
75867;BME280;64513;56.258;43.980;2023-02-01T00:16:59;98898.64;;;5.81;66.55
75867;BME280;64513;56.258;43.980;2023-02-01T00:19:23;98882.90;;;5.81;66.68
75867;BME280;64513;56.258;43.980;2023-02-01T00:21:47;98890.77;;;5.81;66.53
75867;BME280;64513;56.258;43.980;2023-02-01T00:24:12;98894.45;;;5.80;66.36
75867;BME280;64513;56.258;43.980;2023-02-01T00:26:56;98891.82;;;5.80;66.37
75867;BME280;64513;56.258;43.980;2023-02-01T00:29:21;98886.58;;;5.80;66.20
75867;BME280;64513;56.258;43.980;2023-02-01T00:31:45;98871.63;;;5.81;66.40
75867;BME280;64513;56.258;43.980;2023-02-01T00:34:11;98875.30;;;5.80;66.34
75867;BME280;64513;56.258;43.980;2023-02-01T00:36:36;98878.18;;;5.78;66.26
75867;BME280;64513;56.258;43.980;2023-02-01T00:39:00;98893.13;;;5.78;66.15
75867;BME280;64513;56.258;43.980;2023-02-01T00:41:24;98887.10;;;5.77;66.11
75867;BME280;64513;56.258;43.980;2023-02-01T00:43:50;98888.67;;;5.78;66.21
75867;BME280;64513;56.258;43.980;2023-02-01T00:46:15;98886.05;;;5.78;66.34
75867;BME280;64513;56.258;43.980;2023-02-01T00:48:40;98880.02;;;5.78;66.21
75867;BME280;64513;56.258;43.980;2023-02-01T00:51:06;98888.67;;;5.78;66.15
75867;BME280;64513;56.258;43.980;2023-02-01T00:53:31;98882.38;;;5.79;65.99
75867;BME280;64513;56.258;43.980;2023-02-01T00:55:55;98898.12;;;5.79;66.19
75867;BME280;64513;56.258;43.980;2023-02-01T00:58:19;98872.94;;;5.78;65.98
75867;BME280;64513;56.258;43.980;2023-02-01T01:00:45;98884.48;;;5.77;65.90
75867;BME280;64513;56.258;43.980;2023-02-01T01:03:10;98887.10;;;5.77;65.81
75867;BME280;64513;56.258;43.980;2023-02-01T01:05:56;98897.59;;;5.77;65.90
75867;BME280;64513;56.258;43.980;2023-02-01T01:08:21;98885.53;;;5.76;65.84
75867;BME280;64513;56.258;43.980;2023-02-01T01:10:45;98894.19;;;5.77;65.83
75867;BME280;64513;56.258;43.980;2023-02-01T01:13:10;98895.23;;;5.76;65.78
75867;BME280;64513;56.258;43.980;2023-02-01T01:15:54;98886.58;;;5.75;65.75
75867;BME280;64513;56.258;43.980;2023-02-01T01:18:18;98888.15;;;5.76;65.68
75867;BME280;64513;56.258;43.980;2023-02-01T01:20:43;98885.79;;;5.75;65.58
75867;BME280;64513;56.258;43.980;2023-02-01T01:23:08;98887.63;;;5.74;65.65
75867;BME280;64513;56.258;43.980;2023-02-01T01:25:36;98882.64;;;5.73;65.79
75867;BME280;64513;56.258;43.980;2023-02-01T01:27:59;98896.55;;;5.73;65.87
75867;BME280;64513;56.258;43.980;2023-02-01T01:30:23;98882.64;;;5.73;65.81
75867;BME280;64513;56.258;43.980;2023-02-01T01:32:47;98878.19;;;5.73;65.82
75867;BME280;64513;56.258;43.980;2023-02-01T01:35:11;98890.52;;;5.73;65.83
75867;BME280;64513;56.258;43.980;2023-02-01T01:37:36;98894.97;;;5.72;65.82
75867;BME280;64513;56.258;43.980;2023-02-01T01:40:00;98889.73;;;5.72;65.75
75867;BME280;64513;56.258;43.980;2023-02-01T01:42:26;98885.27;;;5.73;65.75
75867;BME280;64513;56.258;43.980;2023-02-01T01:47:57;98894.97;;;5.72;65.74
75867;BME280;64513;56.258;43.980;2023-02-01T01:53:12;98908.34;;;5.71;65.95
75867;BME280;64513;56.258;43.980;2023-02-01T01:55:39;98915.43;;;5.70;66.03
75867;BME280;64513;56.258;43.980;2023-02-01T01:58:07;98907.56;;;5.70;66.01
75867;BME280;64513;56.258;43.980;2023-02-01T02:00:32;98907.83;;;5.69;66.00
75867;BME280;64513;56.258;43.980;2023-02-01T02:06:02;98905.98;;;5.69;66.09
75867;BME280;64513;56.258;43.980;2023-02-01T02:08:29;98906.77;;;5.70;66.00
75867;BME280;64513;56.258;43.980;2023-02-01T02:10:54;98917.27;;;5.70;66.01
75867;BME280;64513;56.258;43.980;2023-02-01T02:13:58;98904.41;;;5.68;65.92
75867;BME280;64513;56.258;43.980;2023-02-01T02:38:12;98926.47;;;5.62;66.20
75867;BME280;64513;56.258;43.980;2023-02-01T02:43:27;98930.92;;;5.61;66.19
75867;BME280;64513;56.258;43.980;2023-02-01T02:53:15;98930.14;;;5.61;65.93
75867;BME280;64513;56.258;43.980;2023-02-01T02:55:27;98932.77;;;5.61;65.84
75867;BME280;64513;56.258;43.980;2023-02-01T02:57:52;98934.59;;;5.60;66.09
75867;BME280;64513;56.258;43.980;2023-02-01T03:00:37;98936.17;;;5.61;66.10
75867;BME280;64513;56.258;43.980;2023-02-01T03:03:22;98930.14;;;5.61;66.10
75867;BME280;64513;56.258;43.980;2023-02-01T03:06:38;98924.89;;;5.61;65.96
75867;BME280;64513;56.258;43.980;2023-02-01T03:08:37;98918.59;;;5.62;65.96
75867;BME280;64513;56.258;43.980;2023-02-01T03:16:56;98930.66;;;5.63;65.94
75867;BME280;64513;56.258;43.980;2023-02-01T03:19:40;98940.11;;;5.64;65.91
75867;BME280;64513;56.258;43.980;2023-02-01T03:22:10;98945.35;;;5.64;65.72
75867;BME280;64513;56.258;43.980;2023-02-01T03:30:27;98946.41;;;5.63;65.67
75867;BME280;64513;56.258;43.980;2023-02-01T03:32:54;98942.98;;;5.62;65.96
75867;BME280;64513;56.258;43.980;2023-02-01T03:35:41;98932.50;;;5.62;66.16
75867;BME280;64513;56.258;43.980;2023-02-01T03:40:53;98939.32;;;5.63;65.87
75867;BME280;64513;56.258;43.980;2023-02-01T03:43:19;98940.89;;;5.64;65.67
75867;BME280;64513;56.258;43.980;2023-02-01T03:45:49;98932.24;;;5.64;65.61
75867;BME280;64513;56.258;43.980;2023-02-01T03:48:14;98945.35;;;5.64;65.47
75867;BME280;64513;56.258;43.980;2023-02-01T03:50:43;98946.93;;;5.65;65.55
75867;BME280;64513;56.258;43.980;2023-02-01T03:53:08;98952.17;;;5.65;65.46
75867;BME280;64513;56.258;43.980;2023-02-01T03:55:33;98952.17;;;5.65;65.31
75867;BME280;64513;56.258;43.980;2023-02-01T03:58:19;98957.42;;;5.65;65.23
75867;BME280;64513;56.258;43.980;2023-02-01T04:01:04;98949.55;;;5.65;65.19
75867;BME280;64513;56.258;43.980;2023-02-01T04:03:28;98957.92;;;5.67;65.16
75867;BME280;64513;56.258;43.980;2023-02-01T04:05:53;98950.34;;;5.66;65.11
75867;BME280;64513;56.258;43.980;2023-02-01T04:08:20;98962.66;;;5.65;65.10
75867;BME280;64513;56.258;43.980;2023-02-01T04:10:44;98963.71;;;5.64;65.10
75867;BME280;64513;56.258;43.980;2023-02-01T04:13:09;98968.17;;;5.63;65.01
75867;BME280;64513;56.258;43.980;2023-02-01T04:15:33;98978.66;;;5.63;65.00
75867;BME280;64513;56.258;43.980;2023-02-01T04:17:57;98977.61;;;5.64;64.94
75867;BME280;64513;56.258;43.980;2023-02-01T04:20:21;98977.61;;;5.64;64.94
75867;BME280;64513;56.258;43.980;2023-02-01T04:22:45;98982.86;;;5.64;64.89
75867;BME280;64513;56.258;43.980;2023-02-01T04:25:10;98981.28;;;5.63;64.91
75867;BME280;64513;56.258;43.980;2023-02-01T04:27:35;98992.56;;;5.64;64.88
75867;BME280;64513;56.258;43.980;2023-02-01T04:29:59;98982.07;;;5.64;64.85
75867;BME280;64513;56.258;43.980;2023-02-01T04:32:24;98991.52;;;5.65;64.83
75867;BME280;64513;56.258;43.980;2023-02-01T04:34:48;98988.11;;;5.64;64.81
75867;BME280;64513;56.258;43.980;2023-02-01T04:37:12;98992.56;;;5.64;64.77
75867;BME280;64513;56.258;43.980;2023-02-01T04:39:36;98971.58;;;5.64;64.56
75867;BME280;64513;56.258;43.980;2023-02-01T04:42:00;99003.84;;;5.64;64.44
75867;BME280;64513;56.258;43.980;2023-02-01T04:44:25;98987.31;;;5.64;64.24
75867;BME280;64513;56.258;43.980;2023-02-01T04:46:49;98990.98;;;5.63;64.29
75867;BME280;64513;56.258;43.980;2023-02-01T04:49:14;98998.07;;;5.62;64.20
75867;BME280;64513;56.258;43.980;2023-02-01T04:51:38;98996.23;;;5.63;64.19
75867;BME280;64513;56.258;43.980;2023-02-01T04:54:03;98978.92;;;5.62;64.15
75867;BME280;64513;56.258;43.980;2023-02-01T04:56:27;98994.66;;;5.62;64.30
75867;BME280;64513;56.258;43.980;2023-02-01T04:58:51;99002.52;;;5.62;64.24
75867;BME280;64513;56.258;43.980;2023-02-01T05:01:17;99001.73;;;5.61;64.39
75867;BME280;64513;56.258;43.980;2023-02-01T05:03:41;99014.06;;;5.61;64.32
75867;BME280;64513;56.258;43.980;2023-02-01T05:06:05;98988.63;;;5.61;64.33
75867;BME280;64513;56.258;43.980;2023-02-01T05:08:29;99020.88;;;5.62;64.41
75867;BME280;64513;56.258;43.980;2023-02-01T05:10:54;98995.45;;;5.62;64.35
75867;BME280;64513;56.258;43.980;2023-02-01T05:13:18;99013.55;;;5.64;64.34
75867;BME280;64513;56.258;43.980;2023-02-01T05:16:02;99007.52;;;5.63;64.29
75867;BME280;64513;56.258;43.980;2023-02-01T05:18:26;99021.41;;;5.64;64.40
75867;BME280;64513;56.258;43.980;2023-02-01T05:20:50;99024.03;;;5.64;64.24
75867;BME280;64513;56.258;43.980;2023-02-01T05:23:14;99024.83;;;5.64;64.13
75867;BME280;64513;56.258;43.980;2023-02-01T05:25:40;99024.03;;;5.64;64.15
75867;BME280;64513;56.258;43.980;2023-02-01T05:28:04;99026.66;;;5.64;64.03
75867;BME280;64513;56.258;43.980;2023-02-01T05:30:28;99024.03;;;5.64;64.01
75867;BME280;64513;56.258;43.980;2023-02-01T05:32:53;99031.65;;;5.66;63.96
75867;BME280;64513;56.258;43.980;2023-02-01T05:35:18;99028.23;;;5.65;63.81
75867;BME280;64513;56.258;43.980;2023-02-01T05:37:43;99030.86;;;5.65;63.63
75867;BME280;64513;56.258;43.980;2023-02-01T05:40:08;99029.52;;;5.68;63.58
75867;BME280;64513;56.258;43.980;2023-02-01T05:42:33;99019.82;;;5.68;63.59
75867;BME280;64513;56.258;43.980;2023-02-01T05:44:57;99026.64;;;5.69;63.51
75867;BME280;64513;56.258;43.980;2023-02-01T05:47:21;99035.04;;;5.71;63.47
75867;BME280;64513;56.258;43.980;2023-02-01T05:49:45;99029.80;;;5.71;63.35
75867;BME280;64513;56.258;43.980;2023-02-01T05:52:09;99041.34;;;5.75;63.30
75867;BME280;64513;56.258;43.980;2023-02-01T05:54:34;99033.22;;;5.77;63.18
75867;BME280;64513;56.258;43.980;2023-02-01T05:56:58;99040.57;;;5.80;63.14
75867;BME280;64513;56.258;43.980;2023-02-01T05:59:22;99026.14;;;5.82;63.03
75867;BME280;64513;56.258;43.980;2023-02-01T06:01:46;99034.52;;;5.84;62.96
75867;BME280;64513;56.258;43.980;2023-02-01T06:04:10;99035.60;;;5.88;62.93
75867;BME280;64513;56.258;43.980;2023-02-01T06:06:35;99045.05;;;5.89;62.85
75867;BME280;64513;56.258;43.980;2023-02-01T06:08:59;99041.12;;;5.92;62.75
75867;BME280;64513;56.258;43.980;2023-02-01T06:11:23;99038.23;;;5.93;62.57
75867;BME280;64513;56.258;43.980;2023-02-01T06:13:49;99044.54;;;5.97;62.52
75867;BME280;64513;56.258;43.980;2023-02-01T06:16:13;99047.66;;;5.99;62.31
75867;BME280;64513;56.258;43.980;2023-02-01T06:18:37;99053.17;;;6.03;62.27
75867;BME280;64513;56.258;43.980;2023-02-01T06:21:03;99061.58;;;6.05;62.10
75867;BME280;64513;56.258;43.980;2023-02-01T06:23:28;99059.48;;;6.07;61.87
75867;BME280;64513;56.258;43.980;2023-02-01T06:26:24;99056.08;;;6.12;61.70
75867;BME280;64513;56.258;43.980;2023-02-01T06:28:20;99063.92;;;6.17;61.59
75867;BME280;64513;56.258;43.980;2023-02-01T06:30:45;99058.16;;;6.20;61.42
75867;BME280;64513;56.258;43.980;2023-02-01T06:33:09;99062.36;;;6.26;61.31
75867;BME280;64513;56.258;43.980;2023-02-01T06:35:33;99067.88;;;6.29;61.19
75867;BME280;64513;56.258;43.980;2023-02-01T06:37:57;99064.43;;;6.34;61.16
75867;BME280;64513;56.258;43.980;2023-02-01T06:40:21;99061.28;;;6.37;61.12
75867;BME280;64513;56.258;43.980;2023-02-01T06:42:47;99071.78;;;6.42;60.94
75867;BME280;64513;56.258;43.980;2023-02-01T06:45:12;99070.18;;;6.46;60.92
75867;BME280;64513;56.258;43.980;2023-02-01T06:47:36;99067.03;;;6.49;60.77
75867;BME280;64513;56.258;43.980;2023-02-01T06:50:00;99070.44;;;6.55;60.72
75867;BME280;64513;56.258;43.980;2023-02-01T06:52:26;99072.28;;;6.59;60.52
75867;BME280;64513;56.258;43.980;2023-02-01T06:54:50;99080.13;;;6.64;60.45
75867;BME280;64513;56.258;43.980;2023-02-01T06:57:14;99083.28;;;6.66;60.37
75867;BME280;64513;56.258;43.980;2023-02-01T06:59:38;99072.77;;;6.72;60.28
75867;BME280;64513;56.258;43.980;2023-02-01T07:02:03;99078.02;;;6.77;60.18
75867;BME280;64513;56.258;43.980;2023-02-01T07:04:27;99074.82;;;6.85;60.06
75867;BME280;64513;56.258;43.980;2023-02-01T07:06:51;99077.44;;;6.90;59.89
75867;BME280;64513;56.258;43.980;2023-02-01T07:09:15;99079.24;;;6.94;59.79
75867;BME280;64513;56.258;43.980;2023-02-01T07:11:40;99076.86;;;7.03;59.55
75867;BME280;64513;56.258;43.980;2023-02-01T07:14:05;99092.63;;;7.08;59.43
75867;BME280;64513;56.258;43.980;2023-02-01T07:16:29;99093.37;;;7.14;59.30
75867;BME280;64513;56.258;43.980;2023-02-01T07:18:53;99098.88;;;7.17;59.20
75867;BME280;64513;56.258;43.980;2023-02-01T07:21:18;99090.45;;;7.20;59.20
75867;BME280;64513;56.258;43.980;2023-02-01T07:23:42;99089.41;;;7.21;59.14
75867;BME280;64513;56.258;43.980;2023-02-01T07:26:09;99092.03;;;7.21;59.16
75867;BME280;64513;56.258;43.980;2023-02-01T07:28:36;99083.62;;;7.19;59.23
75867;BME280;64513;56.258;43.980;2023-02-01T07:31:20;99091.52;;;7.19;59.22
75867;BME280;64513;56.258;43.980;2023-02-01T07:33:44;99094.14;;;7.19;59.17
75867;BME280;64513;56.258;43.980;2023-02-01T07:36:12;99095.20;;;7.18;59.09
75867;BME280;64513;56.258;43.980;2023-02-01T07:38:38;99088.36;;;7.17;59.13
75867;BME280;64513;56.258;43.980;2023-02-01T07:41:04;99076.79;;;7.18;59.18
75867;BME280;64513;56.258;43.980;2023-02-01T07:43:30;99091.25;;;7.21;59.05
75867;BME280;64513;56.258;43.980;2023-02-01T07:45:56;99095.72;;;7.20;59.02
75867;BME280;64513;56.258;43.980;2023-02-01T07:48:21;99089.16;;;7.18;59.09
75867;BME280;64513;56.258;43.980;2023-02-01T07:50:46;99094.16;;;7.14;59.10
75867;BME280;64513;56.258;43.980;2023-02-01T07:53:10;99096.27;;;7.12;59.24
75867;BME280;64513;56.258;43.980;2023-02-01T07:55:36;99096.01;;;7.09;59.34
75867;BME280;64513;56.258;43.980;2023-02-01T07:57:59;99095.78;;;7.05;59.38
75867;BME280;64513;56.258;43.980;2023-02-01T08:00:24;99097.10;;;7.02;59.48
75867;BME280;64513;56.258;43.980;2023-02-01T08:03:08;99093.69;;;7.02;59.42
75867;BME280;64513;56.258;43.980;2023-02-01T08:05:32;99100.78;;;7.01;59.35
75867;BME280;64513;56.258;43.980;2023-02-01T08:07:57;99106.83;;;7.02;59.36
75867;BME280;64513;56.258;43.980;2023-02-01T08:10:22;99106.04;;;7.01;59.36
75867;BME280;64513;56.258;43.980;2023-02-01T08:12:46;99088.70;;;7.00;59.38
75867;BME280;64513;56.258;43.980;2023-02-01T08:15:12;99104.47;;;7.00;59.31
75867;BME280;64513;56.258;43.980;2023-02-01T08:17:36;99108.41;;;7.03;59.25
75867;BME280;64513;56.258;43.980;2023-02-01T08:20:01;99107.88;;;7.06;59.23
75867;BME280;64513;56.258;43.980;2023-02-01T08:22:25;99105.77;;;7.08;59.12
75867;BME280;64513;56.258;43.980;2023-02-01T08:24:49;99099.16;;;7.11;59.07
75867;BME280;64513;56.258;43.980;2023-02-01T08:27:16;99102.58;;;7.11;59.01
75867;BME280;64513;56.258;43.980;2023-02-01T08:29:40;99108.36;;;7.13;59.00
75867;BME280;64513;56.258;43.980;2023-02-01T08:32:04;99107.30;;;7.14;59.00
75867;BME280;64513;56.258;43.980;2023-02-01T08:34:29;99099.41;;;7.14;58.99
75867;BME280;64513;56.258;43.980;2023-02-01T08:36:53;99100.47;;;7.13;59.04
75867;BME280;64513;56.258;43.980;2023-02-01T08:39:37;99105.20;;;7.11;59.16
75867;BME280;64513;56.258;43.980;2023-02-01T08:42:01;99102.05;;;7.09;59.25
75867;BME280;64513;56.258;43.980;2023-02-01T08:44:45;99109.45;;;7.07;59.29
75867;BME280;64513;56.258;43.980;2023-02-01T08:47:09;99107.88;;;7.06;59.35
75867;BME280;64513;56.258;43.980;2023-02-01T08:49:33;99113.40;;;7.04;59.45
75867;BME280;64513;56.258;43.980;2023-02-01T08:51:58;99101.04;;;7.05;59.49
75867;BME280;64513;56.258;43.980;2023-02-01T08:54:22;99105.52;;;7.04;59.43
75867;BME280;64513;56.258;43.980;2023-02-01T08:56:46;99105.25;;;7.06;59.44
75867;BME280;64513;56.258;43.980;2023-02-01T08:59:10;99112.57;;;7.09;59.43
75867;BME280;64513;56.258;43.980;2023-02-01T09:01:34;99107.31;;;7.09;59.49
75867;BME280;64513;56.258;43.980;2023-02-01T09:03:58;99108.89;;;7.10;59.38
75867;BME280;64513;56.258;43.980;2023-02-01T09:06:23;99108.36;;;7.13;59.34
75867;BME280;64513;56.258;43.980;2023-02-01T09:08:47;99107.82;;;7.16;59.38
75867;BME280;64513;56.258;43.980;2023-02-01T09:11:14;99101.52;;;7.17;59.30
75867;BME280;64513;56.258;43.980;2023-02-01T09:13:38;99110.97;;;7.18;59.37
75867;BME280;64513;56.258;43.980;2023-02-01T09:16:04;99108.87;;;7.20;59.45
75867;BME280;64513;56.258;43.980;2023-02-01T09:18:28;99110.44;;;7.21;59.46
75867;BME280;64513;56.258;43.980;2023-02-01T09:20:52;99110.44;;;7.21;59.51
75867;BME280;64513;56.258;43.980;2023-02-01T09:23:16;99109.66;;;7.21;59.58
75867;BME280;64513;56.258;43.980;2023-02-01T09:25:41;99119.38;;;7.20;59.66
75867;BME280;64513;56.258;43.980;2023-02-01T09:28:06;99118.59;;;7.20;59.69
75867;BME280;64513;56.258;43.980;2023-02-01T09:30:30;99110.44;;;7.21;59.62
75867;BME280;64513;56.258;43.980;2023-02-01T09:32:54;99109.13;;;7.24;59.63
75867;BME280;64513;56.258;43.980;2023-02-01T09:35:19;99114.87;;;7.26;59.64
75867;BME280;64513;56.258;43.980;2023-02-01T09:37:43;99109.34;;;7.27;59.62
75867;BME280;64513;56.258;43.980;2023-02-01T09:40:13;99108.29;;;7.28;59.65
75867;BME280;64513;56.258;43.980;2023-02-01T09:48:46;99106.16;;;7.35;59.50
75867;BME280;64513;56.258;43.980;2023-02-01T09:51:15;99111.42;;;7.35;59.42
75867;BME280;64513;56.258;43.980;2023-02-01T09:53:41;99097.22;;;7.36;59.37
75867;BME280;64513;56.258;43.980;2023-02-01T09:56:42;99099.31;;;7.39;59.39
75867;BME280;64513;56.258;43.980;2023-02-01T09:58:35;99099.80;;;7.42;59.38
75867;BME280;64513;56.258;43.980;2023-02-01T10:01:03;99095.59;;;7.40;59.39
75867;BME280;64513;56.258;43.980;2023-02-01T10:03:30;99107.96;;;7.40;59.34
75867;BME280;64513;56.258;43.980;2023-02-01T10:16:45;99110.84;;;7.44;59.18
75867;BME280;64513;56.258;43.980;2023-02-01T10:22:20;99108.73;;;7.46;59.24
75867;BME280;64513;56.258;43.980;2023-02-01T10:27:46;99098.73;;;7.48;59.28
75867;BME280;64513;56.258;43.980;2023-02-01T10:33:36;99104.51;;;7.50;59.27
75867;BME280;64513;56.258;43.980;2023-02-01T10:36:22;99091.36;;;7.50;59.16
75867;BME280;64513;56.258;43.980;2023-02-01T10:38:46;99094.50;;;7.52;59.16
75867;BME280;64513;56.258;43.980;2023-02-01T10:47:00;99103.45;;;7.51;59.03
75867;BME280;64513;56.258;43.980;2023-02-01T10:52:50;99101.27;;;7.63;67.88
75867;BME280;64513;56.258;43.980;2023-02-01T10:58:21;99092.42;;;8.79;66.26
75867;BME280;64513;56.258;43.980;2023-02-01T11:07:04;99095.80;;;8.27;56.88
75867;BME280;64513;56.258;43.980;2023-02-01T11:09:22;99100.19;;;8.03;56.09
75867;BME280;64513;56.258;43.980;2023-02-01T11:14:17;99090.75;;;7.63;55.13
75867;BME280;64513;56.258;43.980;2023-02-01T11:19:28;99103.02;;;7.33;55.00
75867;BME280;64513;56.258;43.980;2023-02-01T11:22:28;99112.55;;;7.19;55.00
75867;BME280;64513;56.258;43.980;2023-02-01T11:24:39;99104.98;;;7.08;54.67
75867;BME280;64513;56.258;43.980;2023-02-01T11:27:06;99100.04;;;6.91;54.84
75867;BME280;64513;56.258;43.980;2023-02-01T11:29:51;99110.04;;;6.79;55.12
75867;BME280;64513;56.258;43.980;2023-02-01T11:32:20;99121.11;;;6.71;55.09
75867;BME280;64513;56.258;43.980;2023-02-01T11:40:54;99120.08;;;6.46;56.12
75867;BME280;64513;56.258;43.980;2023-02-01T11:46:08;99126.91;;;6.47;55.97
75867;BME280;64513;56.258;43.980;2023-02-01T11:48:31;99128.75;;;6.47;55.94
75867;BME280;64513;56.258;43.980;2023-02-01T12:12:51;99116.37;;;5.66;57.61
75867;BME280;64513;56.258;43.980;2023-02-01T12:18:48;99119.49;;;5.68;57.68
75867;BME280;64513;56.258;43.980;2023-02-01T12:27:03;99115.26;;;5.52;58.38
75867;BME280;64513;56.258;43.980;2023-02-01T12:52:53;99130.95;;;5.37;58.92
75867;BME280;64513;56.258;43.980;2023-02-01T12:55:39;99129.66;;;5.34;59.02
75867;BME280;64513;56.258;43.980;2023-02-01T13:01:12;99128.30;;;5.26;59.21
75867;BME280;64513;56.258;43.980;2023-02-01T13:06:25;99133.27;;;5.23;60.09
75867;BME280;64513;56.258;43.980;2023-02-01T13:31:00;99130.25;;;4.94;60.30
75867;BME280;64513;56.258;43.980;2023-02-01T13:42:20;99125.72;;;4.79;60.82
75867;BME280;64513;56.258;43.980;2023-02-01T13:45:41;99124.39;;;4.77;61.07
75867;BME280;64513;56.258;43.980;2023-02-01T13:50:38;99122.81;;;4.76;61.24
75867;BME280;64513;56.258;43.980;2023-02-01T13:53:13;99124.39;;;4.77;61.33
75867;BME280;64513;56.258;43.980;2023-02-01T13:56:26;99122.81;;;4.76;61.43
75867;BME280;64513;56.258;43.980;2023-02-01T13:58:37;99127.00;;;4.72;61.59
75867;BME280;64513;56.258;43.980;2023-02-01T14:06:54;99131.66;;;4.65;62.08
75867;BME280;64513;56.258;43.980;2023-02-01T14:15:30;99139.47;;;4.59;62.63
75867;BME280;64513;56.258;43.980;2023-02-01T14:17:54;99138.63;;;4.49;62.91
75867;BME280;64513;56.258;43.980;2023-02-01T14:20:40;99143.57;;;4.45;63.04
75867;BME280;64513;56.258;43.980;2023-02-01T14:29:00;99154.89;;;4.19;63.82
75867;BME280;64513;56.258;43.980;2023-02-01T14:32:21;99150.88;;;4.11;64.08
75867;BME280;64513;56.258;43.980;2023-02-01T14:42:50;99157.66;;;3.80;65.14
75867;BME280;64513;56.258;43.980;2023-02-01T14:51:06;99147.11;;;3.70;65.70
75867;BME280;64513;56.258;43.980;2023-02-01T14:53:51;99149.38;;;3.62;65.94
75867;BME280;64513;56.258;43.980;2023-02-01T14:56:17;99151.20;;;3.61;66.09
75867;BME280;64513;56.258;43.980;2023-02-01T15:04:40;99158.44;;;3.54;66.49
75867;BME280;64513;56.258;43.980;2023-02-01T15:07:20;99158.81;;;3.41;66.93
75867;BME280;64513;56.258;43.980;2023-02-01T15:09:47;99161.42;;;3.41;66.96
75867;BME280;64513;56.258;43.980;2023-02-01T15:18:02;99148.29;;;3.36;67.30
75867;BME280;64513;56.258;43.980;2023-02-01T15:20:55;99162.94;;;3.37;67.26
75867;BME280;64513;56.258;43.980;2023-02-01T15:25:58;99159.30;;;3.38;67.44
75867;BME280;64513;56.258;43.980;2023-02-01T15:28:23;99149.88;;;3.37;67.46
75867;BME280;64513;56.258;43.980;2023-02-01T15:31:07;99158.27;;;3.39;67.58
75867;BME280;64513;56.258;43.980;2023-02-01T15:33:32;99154.41;;;3.46;67.50
75867;BME280;64513;56.258;43.980;2023-02-01T15:38:44;99170.85;;;3.42;67.69
75867;BME280;64513;56.258;43.980;2023-02-01T15:44:28;99156.00;;;3.47;67.60
75867;BME280;64513;56.258;43.980;2023-02-01T15:46:56;99156.75;;;3.43;67.69
75867;BME280;64513;56.258;43.980;2023-02-01T15:48:52;99151.04;;;3.46;67.65
75867;BME280;64513;56.258;43.980;2023-02-01T15:51:21;99152.11;;;3.50;67.57
75867;BME280;64513;56.258;43.980;2023-02-01T15:54:22;99164.15;;;3.51;67.59
75867;BME280;64513;56.258;43.980;2023-02-01T15:56:13;99168.34;;;3.52;68.92
75867;BME280;64513;56.258;43.980;2023-02-01T15:58:40;99152.17;;;3.55;68.37
75867;BME280;64513;56.258;43.980;2023-02-01T16:01:05;99161.66;;;3.61;67.96
75867;BME280;64513;56.258;43.980;2023-02-01T16:03:54;99167.92;;;3.60;67.84
75867;BME280;64513;56.258;43.980;2023-02-01T16:06:35;99163.42;;;3.56;67.74
75867;BME280;64513;56.258;43.980;2023-02-01T16:09:21;99162.56;;;3.50;67.81
75867;BME280;64513;56.258;43.980;2023-02-01T16:14:51;99171.50;;;3.54;67.62
75867;BME280;64513;56.258;43.980;2023-02-01T16:17:15;99178.87;;;3.57;67.59
75867;BME280;64513;56.258;43.980;2023-02-01T16:19:39;99175.53;;;3.62;67.35
75867;BME280;64513;56.258;43.980;2023-02-01T16:22:03;99169.23;;;3.63;67.45
75867;BME280;64513;56.258;43.980;2023-02-01T16:24:27;99172.70;;;3.68;67.26
75867;BME280;64513;56.258;43.980;2023-02-01T16:26:53;99168.51;;;3.67;67.16
75867;BME280;64513;56.258;43.980;2023-02-01T16:29:17;99168.81;;;3.71;67.09
75867;BME280;64513;56.258;43.980;2023-02-01T16:31:42;99170.39;;;3.72;67.00
75867;BME280;64513;56.258;43.980;2023-02-01T16:36:52;99181.65;;;3.72;66.84
75867;BME280;64513;56.258;43.980;2023-02-01T16:39:19;99175.31;;;3.68;66.73
75867;BME280;64513;56.258;43.980;2023-02-01T16:41:44;99184.13;;;3.62;66.80
75867;BME280;64513;56.258;43.980;2023-02-01T16:44:08;99180.20;;;3.60;66.78
75867;BME280;64513;56.258;43.980;2023-02-01T16:46:35;99182.52;;;3.56;66.73
75867;BME280;64513;56.258;43.980;2023-02-01T16:49:01;99192.77;;;3.63;66.60
75867;BME280;64513;56.258;43.980;2023-02-01T16:51:28;99185.71;;;3.63;66.47
75867;BME280;64513;56.258;43.980;2023-02-01T16:53:53;99191.94;;;3.57;66.56
75867;BME280;64513;56.258;43.980;2023-02-01T16:56:20;99181.72;;;3.56;66.44
75867;BME280;64513;56.258;43.980;2023-02-01T16:58:45;99184.58;;;3.54;66.40
75867;BME280;64513;56.258;43.980;2023-02-01T17:01:11;99172.53;;;3.53;66.32
75867;BME280;64513;56.258;43.980;2023-02-01T17:03:36;99173.50;;;3.47;66.34
75867;BME280;64513;56.258;43.980;2023-02-01T17:06:00;99171.50;;;3.54;66.25
75867;BME280;64513;56.258;43.980;2023-02-01T17:09:21;99168.27;;;3.47;66.29
75867;BME280;64513;56.258;43.980;2023-02-01T17:11:12;99173.22;;;3.43;66.20
75867;BME280;64513;56.258;43.980;2023-02-01T17:13:37;99182.27;;;3.36;66.39
75867;BME280;64513;56.258;43.980;2023-02-01T17:21:53;99184.21;;;3.24;66.56
75867;BME280;64513;56.258;43.980;2023-02-01T17:24:22;99184.21;;;3.24;66.48
75867;BME280;64513;56.258;43.980;2023-02-01T17:26:47;99195.14;;;3.21;66.58
75867;BME280;64513;56.258;43.980;2023-02-01T17:29:12;99191.02;;;3.25;66.52
75867;BME280;64513;56.258;43.980;2023-02-01T17:31:39;99185.52;;;3.04;66.76
75867;BME280;64513;56.258;43.980;2023-02-01T17:34:05;99198.02;;;3.02;66.83